航空気象通報

ウインドサーファーのための航空気象通報による風予報です。

10/31-11/1の航空気象通報(国内、海外)

2012年10月31日 23時31分52秒 | TAF

羽田空港
TAF RJTT 310851Z 3109/0112 36008KT 9999 FEW020 SCT030
     BECMG 0100/0103 16010KT
     BECMG 0103/0106 21024KT
     TEMPO 0103/0106 21025G35KT
日本時間31日18時-1日09時:360度から8ノットの風
09-12時:風が変化
12-15時:160度から10ノットの風
15-18時:風が変化
18-21時:210度から24ノットの風
但し、1日12-15時の間:ときどき210度から25ノット、突風35ノット

静岡空港
TAF RJNS 310843Z 3109/0112 27008KT 9999 FEW030
     TEMPO 0106/0112 27018G28KT
日本時間31日18時-1日21時:270度から8ノットの風
但し、1日15-21時の間:ときどき270度から18ノット、突風28ノット

福岡空港
TAF RJFF 310844Z 3109/0112 28008KT 9999 FEW030 SCT045
     TEMPO 3121/0106 30018G28KT
日本時間31日18時-1日21時:280度から8ノットの風
但し、1日06-15時の間:ときどき300度から18ノット、突風28ノット

那覇空港
TAF ROAH 310844Z 3109/0112 04009KT 8000 -RA FEW020 BKN045
日本時間31日18時-1日21時:040度から8ノットの風

マウイのカフルイ空港
PHOG 311132Z 3112/0112 05009KT P6SM FEW030 SCT050
     FM312000 04014G22KT P6SM FEW035 SCT050
     FM010400 04010G15KT P6SM FEW030 SCT045
     FM010800 08006KT P6SM FEW045 AMD LTD TO WX VIS AND WIND TIL 311600
ハワイ時間31日02-10時:050度から9ノットの風
10-18時:040度から14ノット、突風22ノット
18-22時:040度から10ノット、突風15ノット
22時-1日02時:080度から6ノットの風

サイパン空港
PGSN 311120Z 3112/0112 07008KT P6SM FEW025 SCT060
マリアナ時間31日22時-1日21時:070度から8ノットの風

コメント
この記事をはてなブックマークに追加

10/29-10/30の航空気象通報(国内、海外)

2012年10月29日 23時50分37秒 | TAF

羽田空港
TAF RJTT 290839Z 2909/3012 36016KT 9999 FEW030
     BECMG 2916/2918 01006KT
     BECMG 3000/3003 12006KT
     BECMG 3006/3009 05008KT
日本時間29日18時-30日01時:360度から16ノットの風
01-03時:風が変化
03-09時:010度から6ノットの風
09-12時:風が変化
12-15時:120度から6ノットの風
15-18時:風が変化
18-21時:050度から8ノットの風

静岡空港
TAF RJNS 290838Z 2909/3012 36005KT 9999 FEW020 SCT040
     BECMG 3006/3009 26012KT
日本時間29日18時-30日15時:360度から5ノットの風
15-18時:風が変化
18-21時:260度から12ノットの風

福岡空港
TAF RJFF 290837Z 2909/3012 03006KT 9999 FEW040
     BECMG 2911/2913 14003KT
     BECMG 3000/3003 33011KT
     BECMG 3009/3012 14003KT
日本時間29日18-20時:030度から6ノットの風
20-22時:風が変化
22時-30日09時:140度から3ノットの風
09-12時:風が変化
12-18時:330度から11ノットの風
18-21時:風が変化
21時:140度から3ノットの風

那覇空港
TAF ROAH 290836Z 2909/3012 04007KT 9999 SCT035
日本時間29日18時-30日21時:040度から7ノットの風

マウイのカフルイ空港
PHOG 291140Z 2912/3012 05008KT P6SM FEW030 SCT050
     FM292000 04013G21KT P6SM FEW030 SCT050
     FM292300 04020G30KT P6SM FEW030 SCT050
     FM300600 04012G20KT P6SM FEW030 SCT050 AMD LTD TO WX VIS AND WIND TIL 291600
ハワイ時間29日02-10時:050度から8ノットの風
10-13時:040度から13ノット、突風21ノット
13-20時:040度から20ノット、突風30ノット
20時-30日02時:040度から12ノット、突風20ノット

サイパン空港
PGSN 281129Z 2812/2912 08007KT P6SM VCSH SCT017 SCT050
マリアナ時間28日22時-29日21時:080度から7ノットの風

コメント
この記事をはてなブックマークに追加

10/28-10/29の航空気象通報(国内、海外)

2012年10月28日 22時01分17秒 | TAF

羽田空港
TAF RJTT 280839Z 2809/2912 36006KT 8000 -SHRA FEW010 BKN030
     TEMPO 2809/2812 4000 SHRA BR
     TEMPO 2812/2817 3000 SHRA BR FEW006 BKN008 BKN015
     TEMPO 2817/2821 1500 +TSRA BR FEW006 BKN008 BKN015 FEW020CB
     BECMG 2818/2821 01018KT
日本時間28日18時-29日03時:360度から6ノットの風
03-06時:風が変化
06-21時:010度から18ノットの風

但し、29日02-06時の間:ときどき

静岡空港
TAF RJNS 280842Z 2809/2912 03006KT 4000 -SHRA FEW005 SCT008 BKN015
     TEMPO 2809/2811 2000 SHRA FEW003 BKN008
     BECMG 2811/2813 33006KT
     TEMPO 2811/2814 1500 TSRA FEW003 BKN005 FEW020CB
     BECMG 2814/2816 9999 NSW
     BECMG 2900/2903 18006KT
日本時間28日18-20時:030度から6ノットの風
20-22時:風が変化
22時-29日09時:330度から6ノットの風
09-12時:風が変化
12-21時:180度から6ノットの風
、28日23時-29日01時の後、

福岡空港
TAF RJFF 280842Z 2809/2912 33007KT 9999 FEW030
     BECMG 2818/2821 14003KT
     BECMG 2900/2903 36010KT
日本時間28日18時-29日03時:330度から7ノットの風
03-06時:風が変化
06-09時:140度から3ノットの風
09-12時:風が変化
12-21時:360度から10ノットの風

那覇空港
TAF ROAH 280837Z 2809/2912 01013KT 9999 FEW020
日本時間28日18時-29日21時:010度から13ノットの風

マウイのカフルイ空港
PHOG 281125Z 2812/2912 04009KT P6SM FEW050
     FM282000 05016G26KT P6SM FEW050
     FM290600 04012KT P6SM FEW050 AMD LTD TO WX VIS AND WIND TIL 281600
ハワイ時間28日02-10時:040度から9ノットの風
10-20時:050度から16ノット、突風26ノット
20時-29日02時:040度から12ノットの風

サイパン空港
PGSN 281129Z 2812/2912 08007KT P6SM VCSH SCT017 SCT050
マリアナ時間28日22時-29日21時:080度から7ノットの風

コメント
この記事をはてなブックマークに追加

10/27-10/28の航空気象通報(国内、海外)

2012年10月27日 23時44分08秒 | TAF

羽田空港
TAF RJTT 270838Z 2709/2812 02010KT 9999 FEW030 SCT050
     BECMG 2800/2803 15012KT
日本時間27日18時-28日09時:020度から10ノットの風
09-12時:風が変化
12-21時:150度から12ノットの風

静岡空港
TAF RJNS 270838Z 2709/2812 06010KT 9999 FEW030
     BECMG 2806/2809 14008KT
     TEMPO 2806/2809 3000 SHRA
     TEMPO 2809/2812 1500 TSRA SCT005 BKN008 FEW020CB
日本時間27日18時-28日15時:060度から10ノットの風
15-18時:風が変化
18-21時:140度から8ノットの風

但し、28日15-18時の間:ときどき
但し、28日18-21時の間:ときどき

福岡空港
TAF RJFF 270845Z 2709/2812 15012KT 9000 -SHRA FEW015 SCT045
     TEMPO 2717/2721 17016G26KT 3000 +TSRA FEW008 SCT010 BKN020 FEW030CB
     BECMG 2721/2724 30011KT
日本時間27日18時-28日06時:150度から12ノットの風
但し、28日02-06時の間:ときどき170度から16ノット、突風26ノット
06-09時:風が変化
09-21時:300度から11ノットの風

但し、28日02-06時の間:ときどき

那覇空港
TAF ROAH 270844Z 2709/2812 10005KT 9999 FEW020
     BECMG 2714/2716 08004KT
     BECMG 2800/2803 35014KT
日本時間27日18-23時:100度から5ノットの風
23時-28日01時:風が変化
01-09時:080度から4ノットの風
09-12時:風が変化
12-21時:350度から14ノットの風

マウイのカフルイ空港
PHOG 271134Z 2712/2812 06008KT P6SM FEW050
     FM272000 04014G22KT P6SM FEW030 SCT050
     FM280600 04009KT P6SM FEW050 AMD LTD TO WX VIS AND WIND TIL 271600
ハワイ時間27日02-10時:060度から8ノットの風
10-20時:040度から14ノット、突風22ノット
20時-28日02時:040度から9ノットの風

サイパン空港
PGSN 271135Z 2712/2812 05008KT P6SM VCSH SCT018 SCT050 BKN120
マリアナ時間27日22時-28日21時:050度から8ノットの風

コメント
この記事をはてなブックマークに追加

10/26-10/27の航空気象通報(国内、海外)

2012年10月27日 00時49分10秒 | TAF

羽田空港
TAF RJTT 261436Z 2615/2718 01010KT 9999 FEW030 SCT050
日本時間27日00時-28日03時:010度から10ノットの風

静岡空港
TAF RJNS 261438Z 2615/2718 34004KT 9999 FEW030
     BECMG 2622/2624 06010KT
日本時間27日00-07時:340度から4ノットの風
07-09時:風が変化
09時-28日03時:060度から10ノットの風

福岡空港
TAF RJFF 261449Z 2615/2718 14004KT 9999 FEW025 SCT045
     BECMG 2712/2715 16014KT
     TEMPO 2715/2718 3000 +TSRA FEW010 SCT015 BKN030 FEW030CB
日本時間27日00-21時:140度から4ノットの風
21-24時:風が変化
28日00-03時:160度から14ノットの風

但し、28日00-03時の間:ときどき

那覇空港
TAF ROAH 261436Z 2615/2718 08005KT 9999 FEW020
     BECMG 2700/2703 10009KT
日本時間27日00-09時:080度から5ノットの風
09-12時:風が変化
12時-28日03時:100度から9ノットの風

マウイのカフルイ空港
PHOG 261134Z 2612/2712 VRB06KT P6SM SCT050
     FM262100 03008KT P6SM FEW025 SCT050
     FM270500 06007KT P6SM FEW025 SCT050 AMD LTD TO WX VIS AND WIND TIL 261600
ハワイ時間26日02-11時:風向不定6ノットの風
11-19時:030度から8ノットの風
19時-27日02時:060度から7ノットの風

サイパン空港
PGSN 261120Z 2612/2712 05010KT P6SM VCSH FEW020 SCT060
     FM261700 04013KT P6SM VCSH FEW018CB SCT050 BKN120
マリアナ時間26日22時-27日03時:050度から10ノットの風

03-22時:040度から13ノットの風

コメント
この記事をはてなブックマークに追加